createdAt,value
2022-10-18T00:00:43.123Z,45.34
2022-10-18T00:03:10.615Z,45.25
2022-10-18T00:05:37.366Z,45.60
2022-10-18T00:08:03.643Z,45.89
2022-10-18T00:10:30.142Z,45.44
2022-10-18T00:12:56.609Z,46.01
2022-10-18T00:15:22.938Z,45.46
2022-10-18T00:17:49.705Z,45.85
2022-10-18T00:20:16.280Z,45.94
2022-10-18T00:22:42.606Z,45.91
2022-10-18T00:25:09.447Z,45.92
2022-10-18T00:27:35.736Z,45.74
2022-10-18T00:30:02.021Z,46.09
2022-10-18T00:32:29.009Z,45.73
2022-10-18T00:34:55.564Z,46.30
2022-10-18T00:37:21.829Z,46.58
2022-10-18T00:39:48.523Z,46.56
2022-10-18T00:42:14.879Z,46.48
2022-10-18T00:44:41.213Z,46.23
2022-10-18T00:47:07.854Z,46.01
2022-10-18T00:49:37.605Z,45.59
2022-10-18T00:52:03.916Z,46.17
2022-10-18T00:54:31.285Z,46.00
2022-10-18T00:56:58.490Z,46.60
2022-10-18T00:59:24.813Z,46.44
2022-10-18T01:01:51.355Z,46.04
2022-10-18T01:04:17.761Z,46.40
2022-10-18T01:06:44.282Z,45.88
2022-10-18T01:09:10.876Z,46.02
2022-10-18T01:11:37.195Z,46.30
2022-10-18T01:14:03.561Z,46.14
2022-10-18T01:16:30.276Z,46.26
2022-10-18T01:18:58.904Z,46.25
2022-10-18T01:21:25.274Z,46.41
2022-10-18T01:23:54.454Z,46.02
2022-10-18T01:26:20.801Z,46.00
2022-10-18T01:28:47.187Z,46.27
2022-10-18T01:31:16.213Z,46.07
2022-10-18T01:33:42.469Z,46.14
2022-10-18T01:36:10.803Z,46.48
2022-10-18T01:38:37.547Z,46.19
2022-10-18T01:41:04.711Z,46.13
2022-10-18T01:43:31.005Z,46.56
2022-10-18T01:45:57.650Z,46.19
2022-10-18T01:48:24.110Z,46.41
2022-10-18T01:50:50.808Z,46.26
2022-10-18T01:53:18.258Z,46.15
2022-10-18T01:55:44.885Z,46.41
2022-10-18T01:58:11.835Z,46.26
2022-10-18T02:00:38.386Z,46.35
2022-10-18T02:03:04.745Z,46.20
2022-10-18T02:05:31.014Z,46.62
2022-10-18T02:08:12.189Z,46.47
2022-10-18T02:10:44.349Z,46.54
2022-10-18T02:13:10.928Z,46.32
2022-10-18T02:15:37.344Z,46.36
2022-10-18T02:18:03.641Z,46.53
2022-10-18T02:20:30.478Z,46.64
2022-10-18T02:22:56.781Z,46.66
2022-10-18T02:25:23.124Z,46.46
2022-10-18T02:27:49.718Z,46.64
2022-10-18T02:30:16.247Z,46.56
2022-10-18T02:32:42.514Z,46.36
2022-10-18T02:46:08.625Z,46.98
2022-10-18T02:48:34.962Z,46.89
2022-10-18T02:51:01.236Z,47.05
2022-10-18T02:53:27.624Z,46.47
2022-10-18T02:55:53.890Z,46.43
2022-10-18T02:58:20.169Z,47.14
2022-10-18T03:00:46.647Z,46.86
2022-10-18T03:03:12.944Z,46.94
2022-10-18T03:05:39.233Z,46.66
2022-10-18T03:08:05.786Z,46.89
2022-10-18T03:10:32.115Z,46.38
2022-10-18T03:12:58.793Z,46.70
2022-10-18T03:15:28.232Z,47.06
2022-10-18T03:17:54.486Z,47.00
2022-10-18T03:20:21.013Z,46.92
2022-10-18T03:22:47.415Z,47.51
2022-10-18T03:25:14.233Z,47.08
2022-10-18T03:27:44.661Z,47.29
2022-10-18T03:30:11.983Z,47.19
2022-10-18T03:32:38.752Z,46.70
2022-10-18T03:35:05.044Z,47.45
2022-10-18T03:37:31.493Z,47.03
2022-10-18T03:39:57.791Z,47.45
2022-10-18T03:42:24.071Z,47.22
2022-10-18T03:44:50.401Z,47.15
2022-10-18T03:47:17.991Z,47.23
2022-10-18T03:49:44.269Z,46.46
2022-10-18T03:52:10.812Z,46.63
2022-10-18T03:54:37.091Z,47.37
2022-10-18T03:57:03.375Z,47.26
2022-10-18T03:59:29.664Z,47.46
2022-10-18T04:01:56.038Z,47.69
2022-10-18T04:04:22.348Z,47.58
2022-10-18T04:06:48.923Z,47.35
2022-10-18T04:09:15.225Z,46.88
2022-10-18T04:11:41.949Z,47.24
2022-10-18T04:14:08.245Z,47.08
2022-10-18T04:19:05.689Z,47.12
2022-10-18T04:21:32.500Z,47.33
2022-10-18T04:24:01.127Z,47.13
2022-10-18T04:26:27.632Z,47.14
2022-10-18T04:28:54.429Z,47.02
2022-10-18T04:31:21.331Z,47.50
2022-10-18T04:33:47.611Z,46.95
2022-10-18T04:36:15.166Z,47.60
2022-10-18T04:38:41.674Z,47.37
2022-10-18T04:41:07.966Z,47.55
2022-10-18T04:43:34.621Z,47.40
2022-10-18T04:46:00.915Z,47.13
2022-10-18T04:48:27.292Z,47.41
2022-10-18T04:50:53.869Z,47.28
2022-10-18T04:53:20.144Z,47.44
2022-10-18T04:55:46.414Z,47.14
2022-10-18T04:58:12.709Z,47.13
2022-10-18T05:00:40.133Z,48.20
2022-10-18T05:03:06.600Z,48.16
2022-10-18T05:05:43.484Z,47.94
2022-10-18T05:08:19.579Z,47.71
2022-10-18T05:10:46.234Z,48.08
2022-10-18T05:13:12.850Z,48.14
2022-10-18T05:15:39.342Z,48.16
2022-10-18T05:18:05.885Z,47.68
2022-10-18T05:20:32.411Z,48.23
2022-10-18T05:22:58.652Z,48.06
2022-10-18T05:25:25.184Z,47.72
2022-10-18T05:27:51.471Z,47.86
2022-10-18T05:30:17.916Z,47.91
2022-10-18T05:32:44.370Z,47.94
2022-10-18T05:35:10.806Z,47.69
2022-10-18T05:37:37.139Z,47.95
2022-10-18T05:40:03.609Z,47.96
2022-10-18T05:42:30.426Z,48.03
2022-10-18T05:44:56.832Z,48.34
2022-10-18T05:47:23.240Z,48.60
2022-10-18T05:49:49.766Z,48.66
2022-10-18T05:52:16.196Z,48.85
2022-10-18T05:54:42.725Z,48.84
2022-10-18T05:57:09.015Z,49.04
2022-10-18T05:59:35.295Z,48.81
2022-10-18T06:02:01.780Z,48.88
2022-10-18T06:04:28.075Z,48.91
2022-10-18T06:06:54.419Z,48.37
2022-10-18T06:09:20.795Z,48.51
2022-10-18T06:11:47.085Z,48.34
2022-10-18T06:14:14.152Z,48.73
2022-10-18T06:16:40.621Z,48.40
2022-10-18T06:19:14.229Z,48.86
2022-10-18T06:21:40.535Z,48.69
2022-10-18T06:24:10.933Z,48.86
2022-10-18T06:26:37.192Z,48.50
2022-10-18T06:29:03.542Z,48.72
2022-10-18T06:31:29.980Z,48.63
2022-10-18T06:33:56.385Z,48.79
2022-10-18T06:36:22.875Z,48.86
2022-10-18T06:38:49.917Z,48.80
2022-10-18T06:41:16.184Z,48.41
2022-10-18T06:43:42.443Z,48.24
2022-10-18T06:46:09.089Z,48.83
2022-10-18T06:48:38.324Z,48.01
2022-10-18T06:51:04.590Z,48.06
2022-10-18T06:53:30.978Z,48.36
2022-10-18T06:55:57.310Z,48.13
2022-10-18T06:58:23.581Z,48.46
2022-10-18T07:00:49.848Z,48.05
2022-10-18T07:03:16.205Z,48.05
2022-10-18T07:05:42.482Z,47.58
2022-10-18T07:08:09.024Z,47.97
2022-10-18T07:10:35.518Z,47.57
2022-10-18T07:13:27.341Z,47.86
2022-10-18T07:15:48.995Z,47.66
2022-10-18T07:18:15.247Z,47.81
2022-10-18T07:20:41.514Z,47.07
2022-10-18T07:23:08.062Z,47.13
2022-10-18T07:25:34.331Z,47.70
2022-10-18T07:28:00.589Z,47.39
2022-10-18T07:30:29.748Z,47.24
2022-10-18T07:32:56.045Z,46.86
2022-10-18T07:35:22.355Z,46.83
2022-10-18T07:37:48.951Z,46.39
2022-10-18T07:40:17.643Z,47.07
2022-10-18T07:42:51.255Z,47.06
2022-10-18T07:45:20.629Z,46.52
2022-10-18T07:47:47.132Z,46.90
2022-10-18T07:50:13.457Z,46.04
2022-10-18T07:52:41.870Z,46.17
2022-10-18T07:55:08.211Z,45.78
2022-10-18T07:57:34.962Z,46.58
2022-10-18T08:00:01.694Z,46.00
2022-10-18T08:02:29.106Z,46.24
2022-10-18T08:04:55.615Z,46.56
2022-10-18T08:07:21.997Z,46.03
2022-10-18T08:09:48.335Z,46.31
2022-10-18T08:12:14.652Z,46.08
2022-10-18T08:14:41.714Z,45.27
2022-10-18T08:17:08.005Z,45.50
2022-10-18T08:19:37.123Z,45.60
2022-10-18T08:22:03.965Z,45.08
2022-10-18T08:24:30.250Z,45.16
2022-10-18T08:26:56.771Z,45.33
2022-10-18T08:29:25.862Z,45.08
2022-10-18T08:31:54.361Z,45.13
2022-10-18T08:34:20.632Z,45.28
2022-10-18T08:36:47.230Z,45.27
2022-10-18T08:39:13.481Z,45.63
2022-10-18T08:41:39.893Z,45.37
2022-10-18T08:44:07.509Z,45.09
2022-10-18T08:46:34.031Z,45.40
2022-10-18T08:49:02.784Z,45.19
2022-10-18T08:51:30.049Z,44.58
2022-10-18T08:53:56.350Z,45.58
2022-10-18T08:56:22.633Z,45.36
2022-10-18T08:58:49.147Z,44.42
2022-10-18T09:01:15.443Z,44.54
2022-10-18T09:03:41.767Z,43.20
2022-10-18T09:06:08.185Z,44.35
2022-10-18T09:08:37.626Z,44.33
2022-10-18T09:11:03.906Z,44.25
2022-10-18T09:13:30.385Z,45.53
2022-10-18T09:15:56.713Z,44.52
2022-10-18T09:18:22.979Z,45.32
2022-10-18T09:20:49.453Z,45.40
2022-10-18T09:23:15.851Z,45.03
2022-10-18T09:25:42.339Z,44.37
2022-10-18T09:28:08.720Z,44.42
2022-10-18T09:30:37.403Z,44.91
2022-10-18T09:33:03.735Z,44.94
2022-10-18T09:35:31.199Z,44.63
2022-10-18T09:37:57.536Z,44.11
2022-10-18T09:40:24.278Z,44.51
2022-10-18T09:42:50.714Z,45.23
2022-10-18T09:45:16.977Z,44.72
2022-10-18T09:47:43.324Z,45.13
2022-10-18T09:50:09.752Z,45.47
2022-10-18T09:52:36.060Z,44.30
2022-10-18T09:55:02.361Z,45.06
2022-10-18T09:57:29.486Z,45.47
2022-10-18T09:59:56.034Z,43.96
2022-10-18T10:02:23.362Z,43.87
2022-10-18T10:04:49.990Z,44.33
2022-10-18T10:07:17.286Z,41.69
2022-10-18T10:09:43.572Z,43.29
2022-10-18T10:12:10.099Z,44.90
2022-10-18T10:14:36.353Z,43.04
2022-10-18T10:17:02.783Z,44.76
2022-10-18T10:19:30.172Z,44.31
2022-10-18T10:21:56.604Z,42.56
2022-10-18T10:24:24.992Z,42.72
2022-10-18T10:26:53.962Z,42.57
2022-10-18T10:29:33.572Z,43.76
2022-10-18T10:32:08.566Z,42.92
2022-10-18T10:34:35.278Z,43.66
2022-10-18T10:37:03.989Z,42.80
2022-10-18T10:39:30.656Z,42.75
2022-10-18T10:41:56.955Z,43.18
2022-10-18T10:44:23.239Z,43.61
2022-10-18T10:46:49.880Z,43.39
2022-10-18T10:49:39.150Z,42.84
2022-10-18T10:52:15.470Z,44.13
2022-10-18T10:54:52.107Z,42.69
2022-10-18T10:57:19.084Z,43.35
2022-10-18T10:59:45.728Z,43.58
2022-10-18T11:02:12.199Z,43.91
2022-10-18T11:04:38.504Z,44.00
2022-10-18T11:07:05.792Z,44.03
2022-10-18T11:09:32.293Z,44.11
2022-10-18T11:11:59.182Z,44.40
2022-10-18T11:14:26.880Z,41.99
2022-10-18T11:16:53.300Z,43.09
2022-10-18T11:19:19.941Z,43.38
2022-10-18T11:21:46.250Z,42.56
2022-10-18T11:24:12.638Z,43.52
2022-10-18T11:26:41.074Z,43.87
2022-10-18T11:29:09.164Z,43.80
2022-10-18T11:31:35.433Z,43.57
2022-10-18T11:34:09.287Z,43.22
2022-10-18T11:36:36.833Z,44.13
2022-10-18T11:39:05.987Z,43.61
2022-10-18T11:41:32.287Z,43.45
2022-10-18T11:44:03.679Z,42.71
2022-10-18T11:46:30.478Z,42.54
2022-10-18T11:48:56.869Z,43.43
2022-10-18T11:51:34.097Z,43.99
2022-10-18T11:54:05.083Z,44.19
2022-10-18T11:56:31.340Z,43.92
2022-10-18T11:58:57.637Z,43.32
2022-10-18T12:01:27.697Z,43.92
2022-10-18T12:03:55.018Z,43.11
2022-10-18T12:06:21.277Z,43.04
2022-10-18T12:08:48.205Z,42.98
2022-10-18T12:11:14.449Z,42.06
2022-10-18T12:13:40.714Z,42.37
2022-10-18T12:16:07.115Z,42.67
2022-10-18T12:18:35.461Z,42.57
2022-10-18T12:21:01.799Z,42.10
2022-10-18T12:23:28.276Z,43.19
2022-10-18T12:25:54.574Z,42.41
2022-10-18T12:28:20.863Z,42.97
2022-10-18T12:30:47.192Z,42.30
2022-10-18T12:33:27.923Z,42.54
2022-10-18T12:35:55.112Z,42.02
2022-10-18T12:38:21.378Z,42.60
2022-10-18T12:40:47.816Z,42.47
2022-10-18T12:43:14.086Z,42.34
2022-10-18T12:45:40.365Z,42.54
2022-10-18T12:48:06.667Z,42.05
2022-10-18T12:50:33.410Z,42.28
2022-10-18T12:53:00.695Z,41.50
2022-10-18T12:55:27.261Z,42.22
2022-10-18T12:57:53.870Z,42.10
2022-10-18T13:00:20.138Z,41.36
2022-10-18T13:02:46.448Z,41.73
2022-10-18T13:05:22.296Z,41.63
2022-10-18T13:07:59.182Z,41.42
2022-10-18T13:10:28.677Z,41.58
2022-10-18T13:12:55.077Z,41.75
2022-10-18T13:15:26.250Z,41.42
2022-10-18T13:17:54.130Z,40.25
2022-10-18T13:20:25.983Z,41.42
2022-10-18T13:22:52.927Z,41.48
2022-10-18T13:25:21.378Z,40.27
2022-10-18T13:27:49.023Z,41.27
2022-10-18T13:30:15.485Z,41.17
2022-10-18T13:32:42.538Z,40.48
2022-10-18T13:35:09.190Z,40.82
2022-10-18T13:37:39.763Z,40.36
2022-10-18T13:40:06.298Z,40.11
2022-10-18T13:42:32.882Z,40.69
2022-10-18T13:45:00.376Z,40.11
2022-10-18T13:47:26.790Z,40.08
2022-10-18T13:49:58.534Z,39.96
2022-10-18T13:52:26.696Z,40.07
2022-10-18T13:54:53.183Z,39.78
2022-10-18T13:57:19.467Z,40.26
2022-10-18T13:59:45.733Z,39.97
2022-10-18T14:02:12.199Z,39.81
2022-10-18T14:04:38.482Z,40.09
2022-10-18T14:07:07.256Z,40.14
2022-10-18T14:09:43.582Z,39.40
2022-10-18T14:12:10.966Z,39.35
2022-10-18T14:14:37.406Z,39.48
2022-10-18T14:17:03.685Z,39.99
2022-10-18T14:19:29.972Z,40.14
2022-10-18T14:21:57.059Z,40.28
2022-10-18T14:24:23.365Z,39.99
2022-10-18T14:26:49.621Z,40.06
2022-10-18T14:29:16.194Z,39.96
2022-10-18T14:31:42.509Z,40.00
2022-10-18T14:34:08.782Z,39.83
2022-10-18T14:36:35.150Z,40.11
2022-10-18T14:39:01.419Z,39.91
2022-10-18T14:41:27.679Z,39.49
2022-10-18T14:43:54.087Z,40.20
2022-10-18T14:46:20.369Z,39.92
2022-10-18T14:48:46.672Z,39.51
2022-10-18T14:51:13.387Z,40.28
2022-10-18T14:53:39.686Z,39.92
2022-10-18T14:56:05.937Z,40.66
2022-10-18T14:58:32.284Z,40.18
2022-10-18T15:00:58.597Z,40.29
2022-10-18T15:03:24.970Z,41.22
2022-10-18T15:05:51.293Z,40.54
2022-10-18T15:08:18.116Z,40.51
2022-10-18T15:10:44.681Z,40.57
2022-10-18T15:13:11.885Z,40.87
2022-10-18T15:15:38.377Z,41.00
2022-10-18T15:18:04.927Z,41.12
2022-10-18T15:20:31.514Z,41.12
2022-10-18T15:22:57.920Z,41.43
2022-10-18T15:25:26.777Z,41.60
2022-10-18T15:27:54.703Z,41.63
2022-10-18T15:30:20.982Z,41.61
2022-10-18T15:32:47.240Z,41.89
2022-10-18T15:35:14.449Z,41.80
2022-10-18T15:37:40.703Z,41.65
2022-10-18T15:40:06.983Z,41.33
2022-10-18T15:42:34.126Z,41.47
2022-10-18T15:45:00.403Z,41.43
2022-10-18T15:47:26.705Z,41.88
2022-10-18T15:49:53.808Z,41.86
2022-10-18T15:52:20.105Z,42.17
2022-10-18T15:57:15.262Z,42.83
2022-10-18T15:59:43.946Z,42.74
2022-10-18T16:02:12.280Z,42.97
2022-10-18T16:04:38.722Z,42.94
2022-10-18T16:07:05.012Z,42.52
2022-10-18T16:09:31.358Z,42.78
2022-10-18T16:11:58.335Z,42.99
2022-10-18T16:14:25.242Z,43.31
2022-10-18T16:16:51.644Z,43.21
2022-10-18T16:19:18.296Z,43.44
2022-10-18T16:21:44.720Z,44.02
2022-10-18T16:24:11.014Z,43.67
2022-10-18T16:26:37.512Z,43.76
2022-10-18T16:29:03.833Z,44.22
2022-10-18T16:31:30.120Z,43.72
2022-10-18T16:33:56.634Z,43.41
2022-10-18T16:36:23.537Z,42.99
2022-10-18T16:38:49.827Z,43.24
2022-10-18T16:41:16.202Z,43.21
2022-10-18T16:43:42.996Z,42.99
2022-10-18T16:46:09.455Z,42.97
2022-10-18T16:48:35.933Z,43.02
2022-10-18T16:51:02.210Z,43.19
2022-10-18T16:53:28.672Z,43.07
2022-10-18T16:55:59.245Z,43.24
2022-10-18T16:58:25.511Z,43.75
2022-10-18T17:00:51.799Z,43.83
2022-10-18T17:03:18.792Z,44.57
2022-10-18T17:05:45.132Z,44.39
2022-10-18T17:08:14.289Z,44.26
2022-10-18T17:10:43.280Z,44.46
2022-10-18T17:13:09.561Z,44.74
2022-10-18T17:15:35.972Z,44.72
2022-10-18T17:18:02.696Z,45.12
2022-10-18T17:20:29.224Z,44.54
2022-10-18T17:22:55.567Z,44.20
2022-10-18T17:25:22.878Z,44.63
2022-10-18T17:27:49.788Z,44.80
2022-10-18T17:30:16.546Z,44.88
2022-10-18T17:32:43.896Z,44.69
2022-10-18T17:35:10.388Z,44.97
2022-10-18T17:37:37.144Z,44.74
2022-10-18T17:40:05.303Z,44.53
2022-10-18T17:42:32.059Z,44.57
2022-10-18T17:44:58.668Z,44.65
2022-10-18T17:47:28.173Z,44.97
2022-10-18T17:49:55.505Z,44.82
2022-10-18T17:52:22.800Z,45.40
2022-10-18T17:54:49.425Z,45.48
2022-10-18T17:57:16.857Z,45.70
2022-10-18T17:59:43.769Z,45.61
2022-10-18T18:02:10.639Z,45.75
2022-10-18T18:04:37.411Z,45.78
2022-10-18T18:07:03.975Z,45.23
2022-10-18T18:09:30.937Z,45.33
2022-10-18T18:11:57.599Z,45.38
2022-10-18T18:14:24.371Z,45.78
2022-10-18T18:16:51.418Z,45.74
2022-10-18T18:19:18.701Z,45.48
2022-10-18T18:21:45.760Z,46.06
2022-10-18T18:24:12.895Z,45.99
2022-10-18T18:26:39.677Z,45.84
2022-10-18T18:29:06.396Z,45.87
2022-10-18T18:31:38.629Z,45.82
2022-10-18T18:34:08.123Z,45.66
2022-10-18T18:36:35.177Z,45.61
2022-10-18T18:39:02.049Z,45.94
2022-10-18T18:41:29.604Z,45.50
2022-10-18T18:43:56.556Z,45.54
2022-10-18T18:46:23.826Z,46.01
2022-10-18T18:48:52.080Z,45.86
2022-10-18T18:51:21.504Z,46.08
2022-10-18T18:53:48.290Z,45.84
2022-10-18T18:56:15.187Z,45.93
2022-10-18T18:58:41.730Z,45.94
2022-10-18T19:01:08.435Z,45.70
2022-10-18T19:03:35.289Z,45.62
2022-10-18T19:06:02.156Z,45.53
2022-10-18T19:08:29.354Z,46.09
2022-10-18T19:10:56.281Z,45.83
2022-10-18T19:13:23.264Z,46.08
2022-10-18T19:15:49.954Z,45.90
2022-10-18T19:18:20.385Z,45.75
2022-10-18T19:20:50.590Z,45.50
2022-10-18T19:23:17.078Z,46.00
2022-10-18T19:25:44.820Z,46.10
2022-10-18T19:28:12.520Z,46.62
2022-10-18T19:30:40.367Z,46.21
2022-10-18T19:33:07.277Z,46.89
2022-10-18T19:35:34.325Z,46.42
2022-10-18T19:38:01.056Z,46.63
2022-10-18T19:40:29.405Z,46.50
2022-10-18T19:42:55.933Z,46.09
2022-10-18T19:45:22.239Z,47.17
2022-10-18T19:47:52.177Z,46.67
2022-10-18T19:50:19.072Z,46.64
2022-10-18T19:52:46.718Z,47.46
2022-10-18T19:55:13.402Z,47.28
2022-10-18T19:57:41.600Z,46.33
2022-10-18T20:00:10.878Z,47.28
2022-10-18T20:02:38.730Z,46.97
2022-10-18T20:05:07.330Z,47.79
2022-10-18T20:07:34.013Z,47.59
2022-10-18T20:10:00.630Z,47.86
2022-10-18T20:12:27.186Z,47.53
2022-10-18T20:14:55.853Z,46.75
2022-10-18T20:17:22.923Z,47.79
2022-10-18T20:19:49.515Z,48.05
2022-10-18T20:22:15.801Z,48.11
2022-10-18T20:24:42.116Z,49.05
2022-10-18T20:27:08.666Z,49.46
2022-10-18T20:29:35.151Z,48.89
2022-10-18T20:32:01.454Z,48.61
2022-10-18T20:34:28.014Z,50.33
2022-10-18T20:36:54.443Z,50.30
2022-10-18T20:39:20.706Z,49.56
2022-10-18T20:41:47.875Z,50.18
2022-10-18T20:44:14.220Z,49.20
2022-10-18T20:46:40.592Z,48.55
2022-10-18T20:49:06.885Z,50.24
2022-10-18T20:51:33.180Z,48.65
2022-10-18T20:53:59.793Z,50.20
2022-10-18T20:56:26.806Z,49.33
2022-10-18T20:58:53.101Z,49.24
2022-10-18T21:01:20.718Z,48.54
2022-10-18T21:03:47.447Z,49.39
2022-10-18T21:06:13.721Z,50.11
2022-10-18T21:08:40.034Z,49.86
2022-10-18T21:11:06.658Z,51.41
2022-10-18T21:13:33.364Z,50.01
2022-10-18T21:15:59.682Z,49.63
2022-10-18T21:18:26.232Z,49.66
2022-10-18T21:20:52.697Z,52.06
2022-10-18T21:23:19.551Z,51.42
2022-10-18T21:25:47.146Z,52.65
2022-10-18T21:28:14.009Z,52.60
2022-10-18T21:30:40.301Z,54.04
2022-10-18T21:33:07.177Z,52.66
2022-10-18T21:35:33.526Z,54.05
2022-10-18T21:37:59.817Z,54.73
2022-10-18T21:40:26.723Z,53.19
2022-10-18T21:42:53.032Z,53.66
2022-10-18T21:45:19.522Z,53.91
2022-10-18T21:47:46.055Z,53.36
2022-10-18T21:50:12.339Z,53.28
2022-10-18T21:52:39.097Z,57.47
2022-10-18T21:55:05.647Z,57.95
2022-10-18T21:57:31.994Z,55.45
2022-10-18T21:59:58.276Z,55.74
2022-10-18T22:02:24.931Z,56.13
2022-10-18T22:04:51.268Z,56.67
2022-10-18T22:07:17.513Z,56.95
2022-10-18T22:09:44.057Z,58.25
2022-10-18T22:12:13.196Z,57.25
2022-10-18T22:14:39.511Z,56.74
2022-10-18T22:17:05.988Z,58.17
2022-10-18T22:19:32.397Z,57.64
2022-10-18T22:21:58.732Z,57.48
2022-10-18T22:24:25.778Z,57.66
2022-10-18T22:26:52.072Z,56.19
2022-10-18T22:29:18.330Z,57.96
2022-10-18T22:31:44.652Z,56.81
2022-10-18T22:34:11.060Z,56.21
2022-10-18T22:36:37.373Z,58.34
2022-10-18T22:39:03.954Z,57.07
2022-10-18T22:41:30.208Z,56.97
2022-10-18T22:43:59.769Z,56.32
2022-10-18T22:46:29.028Z,58.31
2022-10-18T22:48:55.299Z,57.51
2022-10-18T22:51:21.583Z,57.20
2022-10-18T22:53:48.751Z,58.59
2022-10-18T22:56:15.038Z,59.75
2022-10-18T22:58:41.292Z,60.35
2022-10-18T23:01:07.706Z,62.18
2022-10-18T23:03:35.022Z,62.19
2022-10-18T23:06:03.448Z,61.60
2022-10-18T23:08:32.097Z,61.84
2022-10-18T23:10:58.404Z,59.67
2022-10-18T23:13:24.697Z,59.26
2022-10-18T23:15:51.563Z,60.65
2022-10-18T23:18:17.823Z,60.38
2022-10-18T23:20:44.312Z,60.28
2022-10-18T23:23:10.883Z,60.41
2022-10-18T23:25:37.176Z,59.81
2022-10-18T23:28:03.513Z,59.66
2022-10-18T23:30:30.715Z,60.64
2022-10-18T23:32:57.096Z,59.56
2022-10-18T23:35:23.410Z,58.13
2022-10-18T23:37:50.783Z,60.38
2022-10-18T23:40:17.211Z,58.25
2022-10-18T23:42:43.518Z,59.24
2022-10-18T23:45:09.877Z,59.30
2022-10-18T23:47:36.355Z,59.58
2022-10-18T23:50:03.247Z,58.24
2022-10-18T23:52:29.631Z,57.60
2022-10-18T23:54:56.058Z,57.26
2022-10-18T23:57:24.631Z,57.07
2022-10-18T23:59:50.957Z,58.07
